sensor_id;sensor_type;location;lat;lon;timestamp;P1;durP1;ratioP1;P2;durP2;ratioP2
66523;SDS011;53350;52.210;5.160;2022-12-29T00:01:22;4.47;;;2.40;;
66523;SDS011;53350;52.210;5.160;2022-12-29T00:03:48;4.65;;;1.73;;
66523;SDS011;53350;52.210;5.160;2022-12-29T00:06:14;4.25;;;2.22;;
66523;SDS011;53350;52.210;5.160;2022-12-29T00:08:41;6.13;;;2.40;;
66523;SDS011;53350;52.210;5.160;2022-12-29T00:11:10;3.85;;;2.00;;
66523;SDS011;53350;52.210;5.160;2022-12-29T00:13:38;4.78;;;2.45;;
66523;SDS011;53350;52.210;5.160;2022-12-29T00:16:22;5.20;;;2.38;;
66523;SDS011;53350;52.210;5.160;2022-12-29T00:18:49;6.25;;;2.30;;
66523;SDS011;53350;52.210;5.160;2022-12-29T00:21:16;4.25;;;1.80;;
66523;SDS011;53350;52.210;5.160;2022-12-29T00:24:02;3.72;;;1.83;;
66523;SDS011;53350;52.210;5.160;2022-12-29T00:26:50;4.47;;;1.70;;
66523;SDS011;53350;52.210;5.160;2022-12-29T00:29:38;4.28;;;1.33;;
66523;SDS011;53350;52.210;5.160;2022-12-29T00:32:22;3.30;;;1.70;;
66523;SDS011;53350;52.210;5.160;2022-12-29T00:35:06;5.07;;;1.40;;
66523;SDS011;53350;52.210;5.160;2022-12-29T00:37:35;3.72;;;1.50;;
66523;SDS011;53350;52.210;5.160;2022-12-29T00:40:19;3.97;;;1.50;;
66523;SDS011;53350;52.210;5.160;2022-12-29T00:43:04;5.22;;;1.90;;
66523;SDS011;53350;52.210;5.160;2022-12-29T00:45:48;3.22;;;1.60;;
66523;SDS011;53350;52.210;5.160;2022-12-29T00:48:15;3.88;;;1.80;;
66523;SDS011;53350;52.210;5.160;2022-12-29T00:51:01;5.63;;;1.27;;
66523;SDS011;53350;52.210;5.160;2022-12-29T00:53:27;2.97;;;1.55;;
66523;SDS011;53350;52.210;5.160;2022-12-29T00:55:53;4.47;;;1.60;;
66523;SDS011;53350;52.210;5.160;2022-12-29T00:58:21;5.18;;;1.35;;
66523;SDS011;53350;52.210;5.160;2022-12-29T01:00:47;3.33;;;1.40;;
66523;SDS011;53350;52.210;5.160;2022-12-29T01:03:14;5.15;;;1.50;;
66523;SDS011;53350;52.210;5.160;2022-12-29T01:05:40;4.32;;;1.52;;
66523;SDS011;53350;52.210;5.160;2022-12-29T01:08:07;4.93;;;1.30;;
66523;SDS011;53350;52.210;5.160;2022-12-29T01:10:33;6.00;;;2.08;;
66523;SDS011;53350;52.210;5.160;2022-12-29T01:12:59;7.50;;;2.38;;
66523;SDS011;53350;52.210;5.160;2022-12-29T01:15:26;4.30;;;1.85;;
66523;SDS011;53350;52.210;5.160;2022-12-29T01:17:53;7.30;;;2.10;;
66523;SDS011;53350;52.210;5.160;2022-12-29T01:20:19;5.95;;;1.88;;
66523;SDS011;53350;52.210;5.160;2022-12-29T01:22:45;5.30;;;1.52;;
66523;SDS011;53350;52.210;5.160;2022-12-29T01:25:12;4.22;;;1.55;;
66523;SDS011;53350;52.210;5.160;2022-12-29T01:27:38;4.85;;;1.63;;
66523;SDS011;53350;52.210;5.160;2022-12-29T01:30:05;6.15;;;1.70;;
66523;SDS011;53350;52.210;5.160;2022-12-29T01:32:33;8.02;;;1.75;;
66523;SDS011;53350;52.210;5.160;2022-12-29T01:35:00;4.60;;;1.65;;
66523;SDS011;53350;52.210;5.160;2022-12-29T01:37:26;3.28;;;1.60;;
66523;SDS011;53350;52.210;5.160;2022-12-29T01:39:53;3.47;;;1.40;;
66523;SDS011;53350;52.210;5.160;2022-12-29T01:42:22;4.93;;;1.60;;
66523;SDS011;53350;52.210;5.160;2022-12-29T01:44:51;4.95;;;1.98;;
66523;SDS011;53350;52.210;5.160;2022-12-29T01:47:22;3.38;;;1.50;;
66523;SDS011;53350;52.210;5.160;2022-12-29T01:49:56;4.43;;;1.45;;
66523;SDS011;53350;52.210;5.160;2022-12-29T01:52:28;3.63;;;1.50;;
66523;SDS011;53350;52.210;5.160;2022-12-29T01:54:58;4.10;;;1.45;;
66523;SDS011;53350;52.210;5.160;2022-12-29T01:57:27;5.28;;;1.63;;
66523;SDS011;53350;52.210;5.160;2022-12-29T01:59:58;3.83;;;1.40;;
66523;SDS011;53350;52.210;5.160;2022-12-29T02:02:33;2.88;;;1.40;;
66523;SDS011;53350;52.210;5.160;2022-12-29T02:05:01;3.25;;;1.25;;
66523;SDS011;53350;52.210;5.160;2022-12-29T02:07:33;1.48;;;0.80;;
66523;SDS011;53350;52.210;5.160;2022-12-29T02:09:59;3.08;;;1.40;;
66523;SDS011;53350;52.210;5.160;2022-12-29T02:12:27;5.15;;;1.50;;
66523;SDS011;53350;52.210;5.160;2022-12-29T02:14:54;3.50;;;1.60;;
66523;SDS011;53350;52.210;5.160;2022-12-29T02:17:27;2.80;;;1.05;;
66523;SDS011;53350;52.210;5.160;2022-12-29T02:20:11;2.25;;;1.15;;
66523;SDS011;53350;52.210;5.160;2022-12-29T02:22:58;2.80;;;1.30;;
66523;SDS011;53350;52.210;5.160;2022-12-29T02:25:42;3.45;;;1.30;;
66523;SDS011;53350;52.210;5.160;2022-12-29T02:28:37;4.47;;;1.10;;
66523;SDS011;53350;52.210;5.160;2022-12-29T02:31:21;4.05;;;1.33;;
66523;SDS011;53350;52.210;5.160;2022-12-29T02:33:58;5.85;;;1.08;;
66523;SDS011;53350;52.210;5.160;2022-12-29T02:36:32;3.53;;;1.00;;
66523;SDS011;53350;52.210;5.160;2022-12-29T02:39:08;3.28;;;1.13;;
66523;SDS011;53350;52.210;5.160;2022-12-29T02:41:44;4.75;;;1.20;;
66523;SDS011;53350;52.210;5.160;2022-12-29T02:44:21;7.65;;;1.20;;
66523;SDS011;53350;52.210;5.160;2022-12-29T02:46:58;1.90;;;0.77;;
66523;SDS011;53350;52.210;5.160;2022-12-29T02:49:27;4.22;;;1.10;;
66523;SDS011;53350;52.210;5.160;2022-12-29T02:51:59;4.65;;;1.05;;
66523;SDS011;53350;52.210;5.160;2022-12-29T02:54:29;4.05;;;1.05;;
66523;SDS011;53350;52.210;5.160;2022-12-29T02:57:09;6.45;;;0.90;;
66523;SDS011;53350;52.210;5.160;2022-12-29T02:59:37;6.53;;;1.80;;
66523;SDS011;53350;52.210;5.160;2022-12-29T03:02:07;5.75;;;1.02;;
66523;SDS011;53350;52.210;5.160;2022-12-29T03:07:48;4.60;;;0.75;;
66523;SDS011;53350;52.210;5.160;2022-12-29T03:10:25;5.57;;;1.05;;
66523;SDS011;53350;52.210;5.160;2022-12-29T03:13:01;3.05;;;0.90;;
66523;SDS011;53350;52.210;5.160;2022-12-29T03:15:50;2.63;;;1.05;;
66523;SDS011;53350;52.210;5.160;2022-12-29T03:18:35;7.80;;;1.00;;
66523;SDS011;53350;52.210;5.160;2022-12-29T03:21:08;3.70;;;0.77;;
66523;SDS011;53350;52.210;5.160;2022-12-29T03:23:38;6.05;;;1.13;;
66523;SDS011;53350;52.210;5.160;2022-12-29T03:26:08;5.47;;;1.10;;
66523;SDS011;53350;52.210;5.160;2022-12-29T03:28:38;10.05;;;1.40;;
66523;SDS011;53350;52.210;5.160;2022-12-29T03:31:07;3.97;;;0.73;;
66523;SDS011;53350;52.210;5.160;2022-12-29T03:33:37;8.95;;;1.23;;
66523;SDS011;53350;52.210;5.160;2022-12-29T03:36:06;6.18;;;1.00;;
66523;SDS011;53350;52.210;5.160;2022-12-29T03:38:37;7.78;;;1.20;;
66523;SDS011;53350;52.210;5.160;2022-12-29T03:41:10;8.77;;;1.38;;
66523;SDS011;53350;52.210;5.160;2022-12-29T03:43:40;11.70;;;1.25;;
66523;SDS011;53350;52.210;5.160;2022-12-29T03:46:06;7.50;;;1.02;;
66523;SDS011;53350;52.210;5.160;2022-12-29T03:48:33;6.78;;;1.52;;
66523;SDS011;53350;52.210;5.160;2022-12-29T03:51:01;8.68;;;1.25;;
66523;SDS011;53350;52.210;5.160;2022-12-29T03:53:27;5.07;;;1.13;;
66523;SDS011;53350;52.210;5.160;2022-12-29T03:55:53;6.32;;;1.35;;
66523;SDS011;53350;52.210;5.160;2022-12-29T03:58:20;9.60;;;1.17;;
66523;SDS011;53350;52.210;5.160;2022-12-29T04:00:46;2.67;;;0.70;;
66523;SDS011;53350;52.210;5.160;2022-12-29T04:03:13;6.72;;;1.08;;
66523;SDS011;53350;52.210;5.160;2022-12-29T04:05:39;5.20;;;0.80;;
66523;SDS011;53350;52.210;5.160;2022-12-29T04:08:07;6.78;;;1.02;;
66523;SDS011;53350;52.210;5.160;2022-12-29T04:10:33;3.63;;;0.85;;
66523;SDS011;53350;52.210;5.160;2022-12-29T04:13:00;5.93;;;1.10;;
66523;SDS011;53350;52.210;5.160;2022-12-29T04:15:26;5.30;;;0.80;;
66523;SDS011;53350;52.210;5.160;2022-12-29T04:17:53;3.60;;;0.82;;
66523;SDS011;53350;52.210;5.160;2022-12-29T04:20:19;5.03;;;1.00;;
66523;SDS011;53350;52.210;5.160;2022-12-29T04:23:04;4.88;;;1.05;;
66523;SDS011;53350;52.210;5.160;2022-12-29T04:25:32;5.60;;;1.17;;
66523;SDS011;53350;52.210;5.160;2022-12-29T04:27:59;5.57;;;1.20;;
66523;SDS011;53350;52.210;5.160;2022-12-29T04:30:26;8.70;;;1.40;;
66523;SDS011;53350;52.210;5.160;2022-12-29T04:32:52;5.97;;;0.93;;
66523;SDS011;53350;52.210;5.160;2022-12-29T04:35:19;5.85;;;1.20;;
66523;SDS011;53350;52.210;5.160;2022-12-29T04:37:45;8.05;;;1.30;;
66523;SDS011;53350;52.210;5.160;2022-12-29T04:40:12;6.63;;;1.00;;
66523;SDS011;53350;52.210;5.160;2022-12-29T04:42:40;12.32;;;1.70;;
66523;SDS011;53350;52.210;5.160;2022-12-29T04:45:06;5.22;;;1.05;;
66523;SDS011;53350;52.210;5.160;2022-12-29T04:47:34;5.63;;;1.00;;
66523;SDS011;53350;52.210;5.160;2022-12-29T04:50:00;6.40;;;1.50;;
66523;SDS011;53350;52.210;5.160;2022-12-29T04:52:26;10.45;;;1.42;;
66523;SDS011;53350;52.210;5.160;2022-12-29T04:54:53;14.88;;;1.75;;
66523;SDS011;53350;52.210;5.160;2022-12-29T04:57:19;11.07;;;1.63;;
66523;SDS011;53350;52.210;5.160;2022-12-29T04:59:47;13.90;;;1.77;;
66523;SDS011;53350;52.210;5.160;2022-12-29T05:02:13;7.05;;;1.58;;
66523;SDS011;53350;52.210;5.160;2022-12-29T05:04:40;10.93;;;1.75;;
66523;SDS011;53350;52.210;5.160;2022-12-29T05:07:06;8.77;;;1.35;;
66523;SDS011;53350;52.210;5.160;2022-12-29T05:09:33;9.27;;;1.65;;
66523;SDS011;53350;52.210;5.160;2022-12-29T05:11:59;10.13;;;1.17;;
66523;SDS011;53350;52.210;5.160;2022-12-29T05:14:26;8.07;;;1.58;;
66523;SDS011;53350;52.210;5.160;2022-12-29T05:16:54;10.20;;;1.55;;
66523;SDS011;53350;52.210;5.160;2022-12-29T05:19:20;7.57;;;1.65;;
66523;SDS011;53350;52.210;5.160;2022-12-29T05:21:46;10.65;;;2.17;;
66523;SDS011;53350;52.210;5.160;2022-12-29T05:24:13;12.50;;;1.95;;
66523;SDS011;53350;52.210;5.160;2022-12-29T05:26:40;9.00;;;1.10;;
66523;SDS011;53350;52.210;5.160;2022-12-29T05:29:06;9.93;;;1.48;;
66523;SDS011;53350;52.210;5.160;2022-12-29T05:31:33;6.53;;;1.83;;
66523;SDS011;53350;52.210;5.160;2022-12-29T05:34:01;6.07;;;1.70;;
66523;SDS011;53350;52.210;5.160;2022-12-29T05:36:28;15.65;;;1.95;;
66523;SDS011;53350;52.210;5.160;2022-12-29T05:38:55;14.43;;;2.03;;
66523;SDS011;53350;52.210;5.160;2022-12-29T05:41:21;10.23;;;1.60;;
66523;SDS011;53350;52.210;5.160;2022-12-29T05:43:47;9.60;;;1.55;;
66523;SDS011;53350;52.210;5.160;2022-12-29T05:46:14;14.38;;;1.92;;
66523;SDS011;53350;52.210;5.160;2022-12-29T05:48:40;16.40;;;2.17;;
66523;SDS011;53350;52.210;5.160;2022-12-29T05:51:08;14.52;;;1.92;;
66523;SDS011;53350;52.210;5.160;2022-12-29T05:53:34;15.65;;;1.90;;
66523;SDS011;53350;52.210;5.160;2022-12-29T05:56:01;13.75;;;1.83;;
66523;SDS011;53350;52.210;5.160;2022-12-29T05:58:28;13.23;;;1.73;;
66523;SDS011;53350;52.210;5.160;2022-12-29T06:00:54;12.27;;;1.80;;
66523;SDS011;53350;52.210;5.160;2022-12-29T06:03:21;11.75;;;1.35;;
66523;SDS011;53350;52.210;5.160;2022-12-29T06:05:47;17.05;;;2.22;;
66523;SDS011;53350;52.210;5.160;2022-12-29T06:08:15;14.27;;;1.95;;
66523;SDS011;53350;52.210;5.160;2022-12-29T06:10:41;12.80;;;1.40;;
66523;SDS011;53350;52.210;5.160;2022-12-29T06:13:07;12.10;;;1.80;;
66523;SDS011;53350;52.210;5.160;2022-12-29T06:15:35;9.02;;;1.52;;
66523;SDS011;53350;52.210;5.160;2022-12-29T06:18:02;16.75;;;2.30;;
66523;SDS011;53350;52.210;5.160;2022-12-29T06:20:28;11.02;;;1.42;;
66523;SDS011;53350;52.210;5.160;2022-12-29T06:22:55;10.40;;;1.60;;
66523;SDS011;53350;52.210;5.160;2022-12-29T06:25:22;14.70;;;2.90;;
66523;SDS011;53350;52.210;5.160;2022-12-29T06:27:49;7.47;;;1.33;;
66523;SDS011;53350;52.210;5.160;2022-12-29T06:30:15;11.63;;;2.08;;
66523;SDS011;53350;52.210;5.160;2022-12-29T06:32:42;9.02;;;1.75;;
66523;SDS011;53350;52.210;5.160;2022-12-29T06:35:09;13.02;;;1.90;;
66523;SDS011;53350;52.210;5.160;2022-12-29T06:37:35;14.95;;;1.77;;
66523;SDS011;53350;52.210;5.160;2022-12-29T06:40:02;14.93;;;1.83;;
66523;SDS011;53350;52.210;5.160;2022-12-29T06:42:30;13.13;;;1.63;;
66523;SDS011;53350;52.210;5.160;2022-12-29T06:44:56;11.23;;;2.03;;
66523;SDS011;53350;52.210;5.160;2022-12-29T06:47:23;16.63;;;1.92;;
66523;SDS011;53350;52.210;5.160;2022-12-29T06:49:50;13.82;;;2.05;;
66523;SDS011;53350;52.210;5.160;2022-12-29T06:52:16;18.65;;;2.30;;
66523;SDS011;53350;52.210;5.160;2022-12-29T06:54:43;15.40;;;2.10;;
66523;SDS011;53350;52.210;5.160;2022-12-29T06:57:09;14.75;;;1.90;;
66523;SDS011;53350;52.210;5.160;2022-12-29T06:59:37;14.35;;;1.88;;
66523;SDS011;53350;52.210;5.160;2022-12-29T07:02:04;11.20;;;2.03;;
66523;SDS011;53350;52.210;5.160;2022-12-29T07:04:30;13.00;;;2.00;;
66523;SDS011;53350;52.210;5.160;2022-12-29T07:06:57;12.70;;;2.25;;
66523;SDS011;53350;52.210;5.160;2022-12-29T07:09:23;11.60;;;1.67;;
66523;SDS011;53350;52.210;5.160;2022-12-29T07:11:50;12.60;;;1.67;;
66523;SDS011;53350;52.210;5.160;2022-12-29T07:14:16;15.73;;;2.25;;
66523;SDS011;53350;52.210;5.160;2022-12-29T07:16:44;17.15;;;2.47;;
66523;SDS011;53350;52.210;5.160;2022-12-29T07:19:10;17.48;;;3.05;;
66523;SDS011;53350;52.210;5.160;2022-12-29T07:21:37;16.50;;;2.08;;
66523;SDS011;53350;52.210;5.160;2022-12-29T07:24:03;18.35;;;2.75;;
66523;SDS011;53350;52.210;5.160;2022-12-29T07:26:30;18.20;;;2.15;;
66523;SDS011;53350;52.210;5.160;2022-12-29T07:28:57;17.52;;;2.63;;
66523;SDS011;53350;52.210;5.160;2022-12-29T07:31:23;12.77;;;1.80;;
66523;SDS011;53350;52.210;5.160;2022-12-29T07:33:51;10.13;;;1.70;;
66523;SDS011;53350;52.210;5.160;2022-12-29T07:36:17;8.70;;;2.20;;
66523;SDS011;53350;52.210;5.160;2022-12-29T07:38:44;11.73;;;1.90;;
66523;SDS011;53350;52.210;5.160;2022-12-29T07:41:10;12.32;;;1.83;;
66523;SDS011;53350;52.210;5.160;2022-12-29T07:43:36;8.95;;;1.58;;
66523;SDS011;53350;52.210;5.160;2022-12-29T07:46:03;10.70;;;1.50;;
66523;SDS011;53350;52.210;5.160;2022-12-29T07:48:30;11.43;;;1.73;;
66523;SDS011;53350;52.210;5.160;2022-12-29T07:53:26;15.82;;;2.10;;
66523;SDS011;53350;52.210;5.160;2022-12-29T07:55:55;13.18;;;1.77;;
66523;SDS011;53350;52.210;5.160;2022-12-29T07:58:22;14.05;;;1.90;;
66523;SDS011;53350;52.210;5.160;2022-12-29T08:00:52;18.88;;;1.92;;
66523;SDS011;53350;52.210;5.160;2022-12-29T08:03:19;14.82;;;1.90;;
66523;SDS011;53350;52.210;5.160;2022-12-29T08:05:45;9.15;;;1.45;;
66523;SDS011;53350;52.210;5.160;2022-12-29T08:08:13;13.77;;;2.03;;
66523;SDS011;53350;52.210;5.160;2022-12-29T08:10:40;13.07;;;1.83;;
66523;SDS011;53350;52.210;5.160;2022-12-29T08:13:06;16.95;;;1.73;;
66523;SDS011;53350;52.210;5.160;2022-12-29T08:15:33;17.77;;;2.45;;
66523;SDS011;53350;52.210;5.160;2022-12-29T08:17:59;16.60;;;2.05;;
66523;SDS011;53350;52.210;5.160;2022-12-29T08:20:25;14.80;;;1.95;;
66523;SDS011;53350;52.210;5.160;2022-12-29T08:22:52;18.02;;;2.22;;
66523;SDS011;53350;52.210;5.160;2022-12-29T08:25:19;13.18;;;2.30;;
66523;SDS011;53350;52.210;5.160;2022-12-29T08:27:46;14.82;;;2.53;;
66523;SDS011;53350;52.210;5.160;2022-12-29T08:30:12;15.85;;;1.88;;
66523;SDS011;53350;52.210;5.160;2022-12-29T08:32:39;18.02;;;1.85;;
66523;SDS011;53350;52.210;5.160;2022-12-29T08:35:06;15.57;;;2.33;;
66523;SDS011;53350;52.210;5.160;2022-12-29T08:37:32;17.90;;;2.20;;
66523;SDS011;53350;52.210;5.160;2022-12-29T08:39:59;12.48;;;2.38;;
66523;SDS011;53350;52.210;5.160;2022-12-29T08:42:29;14.25;;;2.25;;
66523;SDS011;53350;52.210;5.160;2022-12-29T08:44:56;14.93;;;2.53;;
66523;SDS011;53350;52.210;5.160;2022-12-29T08:47:23;17.30;;;2.50;;
66523;SDS011;53350;52.210;5.160;2022-12-29T08:49:49;14.63;;;2.17;;
66523;SDS011;53350;52.210;5.160;2022-12-29T08:52:16;15.80;;;2.58;;
66523;SDS011;53350;52.210;5.160;2022-12-29T08:54:42;16.60;;;2.83;;
66523;SDS011;53350;52.210;5.160;2022-12-29T08:57:08;12.43;;;2.17;;
66523;SDS011;53350;52.210;5.160;2022-12-29T08:59:36;17.40;;;2.63;;
66523;SDS011;53350;52.210;5.160;2022-12-29T09:02:02;21.83;;;2.22;;
66523;SDS011;53350;52.210;5.160;2022-12-29T09:04:29;17.55;;;2.28;;
66523;SDS011;53350;52.210;5.160;2022-12-29T09:06:55;19.20;;;2.65;;
66523;SDS011;53350;52.210;5.160;2022-12-29T09:09:22;16.08;;;2.53;;
66523;SDS011;53350;52.210;5.160;2022-12-29T09:11:48;8.57;;;1.55;;
66523;SDS011;53350;52.210;5.160;2022-12-29T09:14:14;17.23;;;2.13;;
66523;SDS011;53350;52.210;5.160;2022-12-29T09:16:42;10.70;;;1.85;;
66523;SDS011;53350;52.210;5.160;2022-12-29T09:19:26;13.43;;;1.95;;
66523;SDS011;53350;52.210;5.160;2022-12-29T09:21:53;9.60;;;1.98;;
66523;SDS011;53350;52.210;5.160;2022-12-29T09:24:19;10.95;;;1.60;;
66523;SDS011;53350;52.210;5.160;2022-12-29T09:26:45;12.25;;;2.13;;
66523;SDS011;53350;52.210;5.160;2022-12-29T09:29:12;13.55;;;2.30;;
66523;SDS011;53350;52.210;5.160;2022-12-29T09:31:38;12.30;;;2.35;;
66523;SDS011;53350;52.210;5.160;2022-12-29T09:34:06;11.50;;;2.03;;
66523;SDS011;53350;52.210;5.160;2022-12-29T09:36:32;11.18;;;1.80;;
66523;SDS011;53350;52.210;5.160;2022-12-29T09:38:59;13.82;;;1.83;;
66523;SDS011;53350;52.210;5.160;2022-12-29T09:41:26;10.85;;;2.10;;
66523;SDS011;53350;52.210;5.160;2022-12-29T09:44:06;11.70;;;1.65;;
66523;SDS011;53350;52.210;5.160;2022-12-29T09:46:40;12.13;;;2.25;;
66523;SDS011;53350;52.210;5.160;2022-12-29T09:49:19;13.50;;;2.10;;
66523;SDS011;53350;52.210;5.160;2022-12-29T09:51:52;7.53;;;1.58;;
66523;SDS011;53350;52.210;5.160;2022-12-29T09:54:22;8.18;;;1.42;;
66523;SDS011;53350;52.210;5.160;2022-12-29T09:56:53;9.70;;;1.65;;
66523;SDS011;53350;52.210;5.160;2022-12-29T09:59:20;12.40;;;2.03;;
66523;SDS011;53350;52.210;5.160;2022-12-29T10:01:52;13.60;;;2.00;;
66523;SDS011;53350;52.210;5.160;2022-12-29T10:04:24;13.45;;;2.08;;
66523;SDS011;53350;52.210;5.160;2022-12-29T10:06:54;12.90;;;1.85;;
66523;SDS011;53350;52.210;5.160;2022-12-29T10:09:25;13.65;;;2.17;;
66523;SDS011;53350;52.210;5.160;2022-12-29T10:12:02;11.75;;;2.58;;
66523;SDS011;53350;52.210;5.160;2022-12-29T10:14:47;9.77;;;1.92;;
66523;SDS011;53350;52.210;5.160;2022-12-29T10:17:25;14.02;;;2.80;;
66523;SDS011;53350;52.210;5.160;2022-12-29T10:20:18;15.25;;;2.70;;
66523;SDS011;53350;52.210;5.160;2022-12-29T10:22:59;6.22;;;1.40;;
66523;SDS011;53350;52.210;5.160;2022-12-29T10:25:39;9.43;;;2.25;;
66523;SDS011;53350;52.210;5.160;2022-12-29T10:28:10;12.80;;;2.00;;
66523;SDS011;53350;52.210;5.160;2022-12-29T10:30:43;10.93;;;1.90;;
66523;SDS011;53350;52.210;5.160;2022-12-29T10:33:14;13.18;;;2.78;;
66523;SDS011;53350;52.210;5.160;2022-12-29T10:35:47;13.85;;;2.05;;
66523;SDS011;53350;52.210;5.160;2022-12-29T10:38:15;12.75;;;2.15;;
66523;SDS011;53350;52.210;5.160;2022-12-29T10:40:51;9.57;;;1.88;;
66523;SDS011;53350;52.210;5.160;2022-12-29T10:43:24;13.73;;;1.98;;
66523;SDS011;53350;52.210;5.160;2022-12-29T10:45:53;6.15;;;1.48;;
66523;SDS011;53350;52.210;5.160;2022-12-29T10:48:23;12.30;;;2.42;;
66523;SDS011;53350;52.210;5.160;2022-12-29T10:50:55;13.02;;;1.92;;
66523;SDS011;53350;52.210;5.160;2022-12-29T10:53:24;10.38;;;2.25;;
66523;SDS011;53350;52.210;5.160;2022-12-29T10:55:56;7.07;;;1.88;;
66523;SDS011;53350;52.210;5.160;2022-12-29T10:58:25;20.05;;;2.55;;
66523;SDS011;53350;52.210;5.160;2022-12-29T11:00:53;14.88;;;2.75;;
66523;SDS011;53350;52.210;5.160;2022-12-29T11:03:27;12.60;;;2.55;;
66523;SDS011;53350;52.210;5.160;2022-12-29T11:06:19;12.57;;;2.92;;
66523;SDS011;53350;52.210;5.160;2022-12-29T11:08:51;22.08;;;2.92;;
66523;SDS011;53350;52.210;5.160;2022-12-29T11:11:23;16.23;;;3.53;;
66523;SDS011;53350;52.210;5.160;2022-12-29T11:13:55;18.00;;;2.67;;
66523;SDS011;53350;52.210;5.160;2022-12-29T11:16:27;19.67;;;3.13;;
66523;SDS011;53350;52.210;5.160;2022-12-29T11:18:56;20.80;;;3.78;;
66523;SDS011;53350;52.210;5.160;2022-12-29T11:21:27;23.55;;;3.25;;
66523;SDS011;53350;52.210;5.160;2022-12-29T11:23:58;16.38;;;3.03;;
66523;SDS011;53350;52.210;5.160;2022-12-29T11:26:26;20.20;;;3.30;;
66523;SDS011;53350;52.210;5.160;2022-12-29T11:29:05;16.25;;;2.95;;
66523;SDS011;53350;52.210;5.160;2022-12-29T11:31:43;21.17;;;2.80;;
66523;SDS011;53350;52.210;5.160;2022-12-29T11:34:16;15.73;;;2.75;;
66523;SDS011;53350;52.210;5.160;2022-12-29T11:36:45;22.92;;;3.42;;
66523;SDS011;53350;52.210;5.160;2022-12-29T11:39:22;17.67;;;2.63;;
66523;SDS011;53350;52.210;5.160;2022-12-29T11:41:53;19.65;;;3.17;;
66523;SDS011;53350;52.210;5.160;2022-12-29T11:44:20;18.02;;;2.85;;
66523;SDS011;53350;52.210;5.160;2022-12-29T11:46:47;15.30;;;2.60;;
66523;SDS011;53350;52.210;5.160;2022-12-29T11:49:18;18.67;;;3.25;;
66523;SDS011;53350;52.210;5.160;2022-12-29T11:51:49;17.80;;;2.90;;
66523;SDS011;53350;52.210;5.160;2022-12-29T11:54:21;22.80;;;3.55;;
66523;SDS011;53350;52.210;5.160;2022-12-29T11:56:49;21.15;;;2.30;;
66523;SDS011;53350;52.210;5.160;2022-12-29T11:59:34;19.70;;;3.22;;
66523;SDS011;53350;52.210;5.160;2022-12-29T12:02:11;15.50;;;2.28;;
66523;SDS011;53350;52.210;5.160;2022-12-29T12:05:15;19.08;;;2.30;;
66523;SDS011;53350;52.210;5.160;2022-12-29T12:07:54;16.80;;;2.95;;
66523;SDS011;53350;52.210;5.160;2022-12-29T12:10:26;9.20;;;1.92;;
66523;SDS011;53350;52.210;5.160;2022-12-29T12:12:58;7.45;;;1.85;;
66523;SDS011;53350;52.210;5.160;2022-12-29T12:15:30;15.23;;;3.10;;
66523;SDS011;53350;52.210;5.160;2022-12-29T12:18:04;20.55;;;2.80;;
66523;SDS011;53350;52.210;5.160;2022-12-29T12:20:38;12.07;;;2.45;;
66523;SDS011;53350;52.210;5.160;2022-12-29T12:23:15;24.05;;;3.17;;
66523;SDS011;53350;52.210;5.160;2022-12-29T12:25:51;21.15;;;3.58;;
66523;SDS011;53350;52.210;5.160;2022-12-29T12:28:25;17.38;;;2.67;;
66523;SDS011;53350;52.210;5.160;2022-12-29T12:30:59;16.08;;;2.70;;
66523;SDS011;53350;52.210;5.160;2022-12-29T12:33:30;21.30;;;3.20;;
66523;SDS011;53350;52.210;5.160;2022-12-29T12:36:07;17.52;;;2.83;;
66523;SDS011;53350;52.210;5.160;2022-12-29T12:38:50;14.27;;;2.55;;
66523;SDS011;53350;52.210;5.160;2022-12-29T12:41:24;13.98;;;2.55;;
66523;SDS011;53350;52.210;5.160;2022-12-29T12:44:04;12.32;;;2.45;;
66523;SDS011;53350;52.210;5.160;2022-12-29T12:46:50;17.55;;;1.67;;
66523;SDS011;53350;52.210;5.160;2022-12-29T12:49:37;14.80;;;2.13;;
66523;SDS011;53350;52.210;5.160;2022-12-29T12:52:17;16.25;;;2.25;;
66523;SDS011;53350;52.210;5.160;2022-12-29T12:54:59;13.40;;;2.20;;
66523;SDS011;53350;52.210;5.160;2022-12-29T12:57:40;15.90;;;3.50;;
66523;SDS011;53350;52.210;5.160;2022-12-29T13:00:19;13.98;;;2.50;;
66523;SDS011;53350;52.210;5.160;2022-12-29T13:02:51;15.02;;;2.63;;
66523;SDS011;53350;52.210;5.160;2022-12-29T13:05:44;13.38;;;2.58;;
66523;SDS011;53350;52.210;5.160;2022-12-29T13:11:17;17.13;;;2.53;;
66523;SDS011;53350;52.210;5.160;2022-12-29T13:14:01;16.10;;;3.10;;
66523;SDS011;53350;52.210;5.160;2022-12-29T13:16:38;15.05;;;2.45;;
66523;SDS011;53350;52.210;5.160;2022-12-29T13:19:12;11.77;;;2.05;;
66523;SDS011;53350;52.210;5.160;2022-12-29T13:21:47;10.70;;;2.22;;
66523;SDS011;53350;52.210;5.160;2022-12-29T13:24:23;8.90;;;2.08;;
66523;SDS011;53350;52.210;5.160;2022-12-29T13:26:57;12.05;;;2.10;;
66523;SDS011;53350;52.210;5.160;2022-12-29T13:29:31;6.28;;;1.58;;
66523;SDS011;53350;52.210;5.160;2022-12-29T13:32:06;11.75;;;2.10;;
66523;SDS011;53350;52.210;5.160;2022-12-29T13:34:48;10.77;;;1.85;;
66523;SDS011;53350;52.210;5.160;2022-12-29T13:37:24;15.73;;;2.00;;
66523;SDS011;53350;52.210;5.160;2022-12-29T13:39:54;10.75;;;1.83;;
66523;SDS011;53350;52.210;5.160;2022-12-29T13:42:25;15.32;;;2.65;;
66523;SDS011;53350;52.210;5.160;2022-12-29T13:44:53;13.48;;;2.38;;
66523;SDS011;53350;52.210;5.160;2022-12-29T13:47:25;11.95;;;1.98;;
66523;SDS011;53350;52.210;5.160;2022-12-29T13:49:55;10.93;;;2.22;;
66523;SDS011;53350;52.210;5.160;2022-12-29T13:52:24;10.45;;;1.98;;
66523;SDS011;53350;52.210;5.160;2022-12-29T13:55:00;13.63;;;2.72;;
66523;SDS011;53350;52.210;5.160;2022-12-29T13:57:37;17.08;;;2.60;;
66523;SDS011;53350;52.210;5.160;2022-12-29T14:00:11;19.30;;;2.53;;
66523;SDS011;53350;52.210;5.160;2022-12-29T14:02:42;19.73;;;3.17;;
66523;SDS011;53350;52.210;5.160;2022-12-29T14:08:02;17.02;;;2.40;;
66523;SDS011;53350;52.210;5.160;2022-12-29T14:10:32;17.65;;;2.08;;
66523;SDS011;53350;52.210;5.160;2022-12-29T14:13:03;19.38;;;2.25;;
66523;SDS011;53350;52.210;5.160;2022-12-29T14:15:32;21.80;;;2.80;;
66523;SDS011;53350;52.210;5.160;2022-12-29T14:18:03;14.57;;;2.60;;
66523;SDS011;53350;52.210;5.160;2022-12-29T14:20:36;13.55;;;2.70;;
66523;SDS011;53350;52.210;5.160;2022-12-29T14:23:15;9.32;;;2.20;;
66523;SDS011;53350;52.210;5.160;2022-12-29T14:26:00;11.35;;;2.95;;
66523;SDS011;53350;52.210;5.160;2022-12-29T14:28:38;10.43;;;1.98;;
66523;SDS011;53350;52.210;5.160;2022-12-29T14:31:32;8.77;;;2.08;;
66523;SDS011;53350;52.210;5.160;2022-12-29T14:34:15;10.77;;;1.60;;
66523;SDS011;53350;52.210;5.160;2022-12-29T14:36:52;9.88;;;1.27;;
66523;SDS011;53350;52.210;5.160;2022-12-29T14:39:29;6.38;;;1.35;;
66523;SDS011;53350;52.210;5.160;2022-12-29T14:41:59;6.43;;;1.23;;
66523;SDS011;53350;52.210;5.160;2022-12-29T14:44:28;8.18;;;1.10;;
66523;SDS011;53350;52.210;5.160;2022-12-29T14:46:55;6.80;;;1.15;;
66523;SDS011;53350;52.210;5.160;2022-12-29T14:49:25;3.95;;;0.90;;
66523;SDS011;53350;52.210;5.160;2022-12-29T14:51:55;6.80;;;0.98;;
66523;SDS011;53350;52.210;5.160;2022-12-29T15:00:14;8.27;;;1.10;;
66523;SDS011;53350;52.210;5.160;2022-12-29T15:02:44;8.07;;;1.30;;
66523;SDS011;53350;52.210;5.160;2022-12-29T15:05:22;6.38;;;1.05;;
66523;SDS011;53350;52.210;5.160;2022-12-29T15:07:53;8.57;;;1.33;;
66523;SDS011;53350;52.210;5.160;2022-12-29T15:10:23;10.23;;;1.50;;
66523;SDS011;53350;52.210;5.160;2022-12-29T15:12:53;10.15;;;1.98;;
66523;SDS011;53350;52.210;5.160;2022-12-29T15:15:22;9.23;;;1.93;;
66523;SDS011;53350;52.210;5.160;2022-12-29T15:17:51;9.75;;;1.88;;
66523;SDS011;53350;52.210;5.160;2022-12-29T15:20:22;14.40;;;2.00;;